Time;durP1;ratioP1;P1;durP2;ratioP2;P2;SDS_P1;SDS_P2;PMS_P1;PMS_P2;Temp;Humidity;BMP_temperature;BMP_pressure;BME280_temperature;BME280_humidity;BME280_pressure;Samples;Min_cycle;Max_cycle;Signal;HPM_P1;HPM_P2
2022/08/17 00:03:56;;;;;;;10.50;9.40;;;24.20;85.50;;;;;;10393710;28;20033;-63
2022/08/17 00:08:59;;;;;;;10.60;9.50;;;24.20;85.50;;;;;;10395971;28;20113;-63
2022/08/17 00:14:05;;;;;;;11.82;9.13;;;24.20;85.60;;;;;;10391526;28;20029;-63
2022/08/17 00:19:08;;;;;;;10.82;9.15;;;24.10;85.50;;;;;;10394775;28;20061;-63
2022/08/17 00:24:09;;;;;;;10.93;9.70;;;24.10;85.60;;;;;;10392398;28;20040;-63
2022/08/17 00:29:10;;;;;;;11.85;9.90;;;24.10;85.60;;;;;;10393351;28;20422;-63
2022/08/17 00:34:10;;;;;;;11.68;10.48;;;24.10;85.60;;;;;;10389550;28;20363;-63
2022/08/17 00:39:11;;;;;;;11.30;9.63;;;24.00;85.60;;;;;;10393258;28;20086;-63
2022/08/17 00:44:12;;;;;;;11.32;9.82;;;24.00;85.70;;;;;;10391737;28;20040;-63
2022/08/17 00:49:14;;;;;;;10.65;9.48;;;24.00;85.70;;;;;;10392016;28;20506;-62
2022/08/17 00:54:22;;;;;;;10.40;9.18;;;24.00;85.70;;;;;;10392813;28;20033;-63
2022/08/17 00:59:30;;;;;;;10.73;9.60;;;24.00;85.80;;;;;;10392132;28;20040;-63
2022/08/17 01:04:32;;;;;;;11.25;9.43;;;23.90;85.80;;;;;;10390346;28;20060;-63
2022/08/17 01:09:33;;;;;;;12.63;9.90;;;23.90;85.90;;;;;;10389216;28;20120;-63
2022/08/17 01:14:33;;;;;;;11.23;9.90;;;23.90;85.90;;;;;;10390587;28;20051;-63
2022/08/17 01:19:38;;;;;;;11.23;10.00;;;23.90;86.00;;;;;;10389497;28;20548;-63
2022/08/17 01:24:47;;;;;;;13.25;9.93;;;23.80;85.90;;;;;;10388435;28;20382;-63
2022/08/17 01:29:52;;;;;;;10.85;8.77;;;23.80;86.10;;;;;;10391436;28;20342;-63
2022/08/17 01:34:54;;;;;;;10.93;9.70;;;23.80;86.10;;;;;;10389854;28;20194;-63
2022/08/17 01:40:03;;;;;;;10.77;9.65;;;23.80;86.20;;;;;;10390752;28;20080;-63
2022/08/17 01:45:16;;;;;;;11.27;9.55;;;23.80;86.30;;;;;;10389595;28;20456;-63
2022/08/17 01:50:21;;;;;;;10.98;9.57;;;23.70;86.20;;;;;;10388621;28;20025;-63
2022/08/17 01:55:29;;;;;;;12.15;9.82;;;23.70;86.30;;;;;;10388640;28;20520;-63
2022/08/17 02:00:30;;;;;;;;;;;23.70;86.40;;;;;;10392148;28;20095;-63
2022/08/17 02:05:31;;;;;;;11.05;9.85;;;23.60;86.60;;;;;;10388528;28;19917;-63
2022/08/17 02:10:33;;;;;;;10.57;9.18;;;23.60;86.40;;;;;;10389036;28;20099;-63
2022/08/17 02:15:34;;;;;;;11.77;9.40;;;23.60;86.50;;;;;;10387828;28;20110;-63
2022/08/17 02:20:37;;;;;;;12.75;9.85;;;23.60;86.60;;;;;;10387858;28;20046;-63
2022/08/17 02:25:42;;;;;;;12.70;9.63;;;23.60;86.70;;;;;;10387603;28;20053;-63
2022/08/17 02:30:43;;;;;;;11.05;9.55;;;23.50;86.70;;;;;;10389459;28;20033;-63
2022/08/17 02:35:44;;;;;;;11.13;9.48;;;23.50;86.90;;;;;;10386847;28;20420;-63
2022/08/17 02:40:46;;;;;;;13.65;10.10;;;23.50;86.90;;;;;;10391238;28;20152;-63
2022/08/17 02:45:47;;;;;;;12.02;10.00;;;23.50;86.90;;;;;;10394799;28;20029;-63
2022/08/17 02:50:48;;;;;;;13.02;9.80;;;23.50;87.60;;;;;;10389916;28;20481;-63
2022/08/17 02:55:48;;;;;;;14.02;10.25;;;23.50;87.10;;;;;;10399529;28;20516;-63
2022/08/17 03:00:49;;;;;;;13.07;10.05;;;23.40;87.10;;;;;;10380369;28;20102;-63
2022/08/17 03:05:50;;;;;;;10.95;9.32;;;23.40;87.30;;;;;;10397929;28;20339;-63
2022/08/17 03:10:51;;;;;;;14.98;10.02;;;23.40;87.30;;;;;;10396831;28;20040;-63
2022/08/17 03:15:52;;;;;;;12.88;9.90;;;23.40;87.40;;;;;;10403691;28;20030;-63
2022/08/17 03:20:55;;;;;;;12.88;9.38;;;23.40;87.40;;;;;;10401466;28;20049;-63
2022/08/17 03:25:57;;;;;;;10.52;9.27;;;23.30;87.40;;;;;;10403496;28;20032;-63
2022/08/17 03:30:57;;;;;;;11.88;9.23;;;23.30;87.50;;;;;;10407378;28;20040;-63
2022/08/17 03:35:58;;;;;;;10.50;9.15;;;23.30;87.60;;;;;;10396158;28;20032;-63
2022/08/17 03:40:59;;;;;;;11.63;9.70;;;23.30;87.60;;;;;;10382925;28;20650;-63
2022/08/17 03:56:44;;;;;;;12.43;9.68;;;23.20;87.70;;;;;;10409963;28;20083;-63
2022/08/17 04:01:49;;;;;;;11.23;8.80;;;23.20;87.70;;;;;;10394880;28;20080;-65
2022/08/17 04:06:50;;;;;;;11.10;9.38;;;23.20;87.80;;;;;;10397167;28;20417;-64
2022/08/17 04:11:50;;;;;;;10.25;8.80;;;23.20;87.80;;;;;;10399902;28;20033;-64
2022/08/17 04:16:51;;;;;;;10.48;8.32;;;23.20;87.80;;;;;;10402770;28;20033;-65
2022/08/17 04:21:52;;;;;;;9.93;8.20;;;23.20;87.90;;;;;;10404402;28;20046;-63
2022/08/17 04:26:53;;;;;;;10.70;8.50;;;23.10;87.90;;;;;;10403542;28;20025;-63
2022/08/17 04:31:53;;;;;;;8.88;7.97;;;23.10;87.90;;;;;;10400264;28;20112;-63
2022/08/17 04:36:54;;;;;;;10.38;8.32;;;23.10;88.00;;;;;;10398146;28;20040;-61
2022/08/17 04:42:15;;;;;;;12.38;8.63;;;23.10;88.10;;;;;;10404690;28;20038;-61
2022/08/17 04:47:16;;;;;;;9.10;8.20;;;23.10;88.70;;;;;;10402595;28;20498;-60
2022/08/17 04:52:17;;;;;;;10.02;8.10;;;23.10;88.10;;;;;;10400414;28;20021;-62
2022/08/17 04:57:17;;;;;;;13.15;9.43;;;23.10;88.20;;;;;;10406172;28;20387;-63
2022/08/17 05:02:18;;;;;;;13.77;9.60;;;23.00;88.50;;;;;;10392328;28;20045;-62
2022/08/17 05:07:19;;;;;;;11.60;9.30;;;23.00;88.60;;;;;;10357983;28;20033;-63
2022/08/17 05:12:19;;;;;;;11.10;9.20;;;23.00;88.70;;;;;;10393186;28;20548;-63
2022/08/17 05:17:20;;;;;;;10.00;8.45;;;23.00;88.70;;;;;;10367580;28;20060;-65
2022/08/17 05:22:21;;;;;;;10.40;8.35;;;23.00;88.70;;;;;;10331860;28;20041;-64
2022/08/17 05:27:21;;;;;;;11.85;9.10;;;23.00;88.70;;;;;;10332792;28;20030;-64
2022/08/17 05:32:24;;;;;;;10.75;8.60;;;23.00;88.70;;;;;;10325707;28;20051;-64
2022/08/17 05:37:25;;;;;;;12.38;8.88;;;22.90;88.70;;;;;;10331536;28;20383;-64
2022/08/17 05:42:26;;;;;;;11.73;7.93;;;23.00;89.00;;;;;;10324914;28;20437;-64
2022/08/17 05:47:27;;;;;;;9.30;7.80;;;23.00;88.70;;;;;;10333285;28;20033;-64
2022/08/17 05:53:01;;;;;;;9.70;7.85;;;22.90;88.70;;;;;;10331079;28;20029;-64
2022/08/17 05:58:26;;;;;;;9.00;7.68;;;23.00;88.80;;;;;;10327003;28;20886;-64
2022/08/17 06:03:36;;;;;;;9.95;8.02;;;23.00;88.70;;;;;;10328446;28;20049;-64
2022/08/17 06:08:48;;;;;;;8.93;7.88;;;23.00;88.60;;;;;;10330277;28;20029;-64
2022/08/17 06:14:28;;;;;;;8.45;7.13;;;23.00;88.70;;;;;;10323165;28;20116;-64
2022/08/17 06:19:46;;;;;;;9.88;7.97;;;23.00;88.60;;;;;;10346156;22;20502;-64
2022/08/17 06:24:59;;;;;;;9.68;7.60;;;23.00;88.70;;;;;;10325180;28;20028;-65
2022/08/17 06:30:15;;;;;;;10.18;8.20;;;23.00;88.70;;;;;;10334175;28;20026;-64
2022/08/17 06:35:41;;;;;;;9.98;7.05;;;23.00;88.70;;;;;;10331772;28;20502;-63
2022/08/17 06:41:01;;;;;;;7.63;6.78;;;22.80;88.70;;;;;;10333157;28;20032;-63
2022/08/17 06:46:15;;;;;;;9.70;7.50;;;23.00;88.80;;;;;;10333501;28;20106;-63
2022/08/17 06:51:34;;;;;;;8.43;7.28;;;22.90;88.90;;;;;;10336067;28;20558;-63
2022/08/17 06:56:52;;;;;;;8.43;7.22;;;22.90;88.90;;;;;;10330746;28;20488;-64
2022/08/17 07:01:55;;;;;;;;;;;22.90;88.90;;;;;;10328180;28;20436;-64
2022/08/17 07:12:36;;;;;;;8.38;7.00;;;22.80;89.20;;;;;;10284005;28;20152;-64
2022/08/17 07:17:39;;;;;;;7.78;6.63;;;22.80;89.20;;;;;;10327826;28;20465;-64
2022/08/17 07:22:40;;;;;;;9.20;6.97;;;22.80;89.20;;;;;;10325655;28;20387;-64
2022/08/17 07:27:44;;;;;;;11.27;7.63;;;22.80;89.40;;;;;;10333475;28;20037;-64
2022/08/17 07:32:57;;;;;;;8.82;7.38;;;22.80;89.60;;;;;;10373255;22;20244;-64
2022/08/17 07:38:22;;;;;;;9.80;7.57;;;22.80;89.80;;;;;;10361962;28;20025;-64
2022/08/17 07:43:25;;;;;;;9.57;7.18;;;22.80;90.00;;;;;;10398033;22;20557;-64
2022/08/17 07:48:26;;;;;;;8.60;7.32;;;22.80;89.90;;;;;;10367679;28;20036;-64
2022/08/17 07:53:29;;;;;;;8.25;7.28;;;22.80;90.00;;;;;;10343462;28;20112;-64
2022/08/17 07:58:33;;;;;;;8.52;6.70;;;22.80;90.00;;;;;;10364284;28;20037;-64
2022/08/17 08:03:43;;;;;;;9.38;7.60;;;22.80;90.00;;;;;;10356845;28;20596;-64
2022/08/17 08:08:51;;;;;;;9.48;6.95;;;22.80;90.00;;;;;;10361191;28;20383;-64
2022/08/17 08:13:52;;;;;;;7.28;6.07;;;22.90;90.00;;;;;;10363019;28;20477;-64
2022/08/17 08:18:59;;;;;;;7.78;6.30;;;22.90;89.80;;;;;;10360992;28;20576;-64
2022/08/17 08:29:28;;;;;;;7.38;6.40;;;22.90;89.80;;;;;;10338374;22;20630;-64
2022/08/17 08:34:55;;;;;;;8.90;7.78;;;22.90;90.00;;;;;;10364461;28;20526;-64
2022/08/17 08:40:09;;;;;;;8.63;7.23;;;22.90;90.00;;;;;;10363162;28;20063;-64
2022/08/17 08:45:31;;;;;;;7.03;6.18;;;22.90;90.00;;;;;;10360583;28;20021;-64
2022/08/17 08:50:39;;;;;;;8.00;6.28;;;22.90;90.00;;;;;;10357858;28;20562;-64
2022/08/17 08:55:48;;;;;;;7.93;6.35;;;22.90;89.90;;;;;;10364902;28;20106;-64
2022/08/17 09:00:53;;;;;;;6.97;6.28;;;23.00;89.80;;;;;;10361534;28;20205;-64
2022/08/17 09:06:19;;;;;;;6.90;6.10;;;23.00;89.60;;;;;;10367414;28;20057;-64
2022/08/17 09:11:43;;;;;;;7.75;6.20;;;23.10;89.70;;;;;;10362358;28;20619;-64
2022/08/17 09:17:11;;;;;;;6.68;5.60;;;23.10;89.60;;;;;;10359716;28;20582;-64
2022/08/17 09:22:23;;;;;;;7.35;6.43;;;23.10;89.30;;;;;;10360746;28;20499;-64
2022/08/17 09:27:33;;;;;;;6.07;5.43;;;23.20;89.30;;;;;;10361261;28;20091;-64
2022/08/17 09:32:39;;;;;;;6.95;6.10;;;23.20;89.20;;;;;;10359591;28;20331;-64
2022/08/17 09:37:59;;;;;;;6.82;5.97;;;23.20;89.10;;;;;;10357300;28;20063;-64
2022/08/17 09:43:11;;;;;;;5.88;5.32;;;23.20;89.20;;;;;;10359715;28;20572;-64
2022/08/17 09:48:49;;;;;;;6.32;5.55;;;23.20;89.10;;;;;;10358970;28;20074;-64
2022/08/17 09:53:50;;;;;;;5.68;5.10;;;23.20;89.20;;;;;;10345344;28;20452;-64
2022/08/17 09:59:02;;;;;;;6.90;5.85;;;23.30;89.00;;;;;;10337384;28;20274;-64
2022/08/17 10:04:20;;;;;;;6.25;5.65;;;23.30;89.00;;;;;;10364114;28;20075;-63
2022/08/17 10:09:27;;;;;;;7.45;6.60;;;23.30;89.10;;;;;;10380576;22;20046;-63
2022/08/17 10:15:15;;;;;;;8.10;6.07;;;23.40;89.10;;;;;;10345252;28;20043;-64
2022/08/17 10:20:18;;;;;;;6.68;5.97;;;23.40;89.40;;;;;;10319568;28;20119;-64
2022/08/17 10:30:48;;;;;;;8.10;6.28;;;23.40;89.20;;;;;;10335156;28;20033;-64
2022/08/17 10:36:01;;;;;;;7.35;6.38;;;23.50;89.40;;;;;;10328311;28;20561;-64
2022/08/17 10:41:25;;;;;;;6.85;6.15;;;23.50;89.20;;;;;;10334925;28;20037;-64
2022/08/17 10:46:41;;;;;;;7.35;6.45;;;23.60;89.20;;;;;;10350432;28;20895;-63
2022/08/17 10:51:44;;;;;;;7.32;6.63;;;23.70;88.80;;;;;;10335544;28;20028;-64
2022/08/17 10:56:49;;;;;;;6.90;6.20;;;23.70;88.70;;;;;;10341997;28;20038;-64
2022/08/17 11:02:08;;;;;;;8.52;6.50;;;23.70;88.60;;;;;;10327411;28;20764;-65
2022/08/17 11:07:16;;;;;;;7.10;6.35;;;23.80;88.80;;;;;;10326284;28;20127;-64
2022/08/17 11:12:36;;;;;;;7.75;6.85;;;23.80;88.90;;;;;;10343423;28;20021;-64
2022/08/17 11:17:49;;;;;;;6.53;5.93;;;23.80;89.10;;;;;;10332495;28;20812;-65
2022/08/17 11:23:11;;;;;;;8.13;6.97;;;23.80;89.00;;;;;;10322211;28;20044;-65
2022/08/17 11:28:21;;;;;;;8.02;6.47;;;23.80;89.00;;;;;;10327213;28;20056;-65
2022/08/17 11:33:28;;;;;;;7.13;6.28;;;23.80;89.20;;;;;;10328328;28;20386;-65
2022/08/17 11:38:45;;;;;;;8.70;6.83;;;23.80;89.10;;;;;;10370079;22;20916;-65
2022/08/17 11:44:21;;;;;;;8.63;6.72;;;23.90;89.20;;;;;;10309051;28;20046;-65
2022/08/17 11:55:27;;;;;;;7.28;6.50;;;23.80;89.40;;;;;;10308698;28;20037;-65
2022/08/17 12:00:48;;;;;;;7.38;6.60;;;23.90;89.50;;;;;;10334797;28;20217;-64
2022/08/17 12:05:52;;;;;;;7.25;6.40;;;23.90;89.60;;;;;;10336431;28;20452;-64
2022/08/17 12:11:15;;;;;;;17.52;7.07;;;23.90;89.60;;;;;;10323961;28;20026;-64
2022/08/17 12:16:17;;;;;;;7.10;6.40;;;23.80;89.60;;;;;;10334646;28;20203;-64
2022/08/17 12:21:21;;;;;;;7.07;6.22;;;23.90;89.60;;;;;;10331182;28;20344;-64
2022/08/17 12:26:29;;;;;;;6.88;6.18;;;23.90;89.50;;;;;;10332081;28;20511;-63
2022/08/17 12:31:43;;;;;;;8.23;6.90;;;23.90;89.60;;;;;;10330920;28;20033;-64
2022/08/17 12:36:45;;;;;;;6.95;6.22;;;23.90;89.70;;;;;;10322019;28;20456;-67
2022/08/17 12:41:48;;;;;;;8.10;6.60;;;23.90;89.70;;;;;;10334269;28;20095;-65
2022/08/17 12:46:59;;;;;;;10.07;8.05;;;23.90;90.20;;;;;;10327598;28;20029;-64
2022/08/17 12:52:25;;;;;;;9.75;7.35;;;23.90;90.10;;;;;;10322668;28;20021;-65
2022/08/17 12:57:37;;;;;;;9.38;7.93;;;23.90;90.20;;;;;;10319623;28;20025;-65
2022/08/17 13:02:38;;;;;;;11.07;8.07;;;23.90;90.20;;;;;;10327146;28;20549;-65
2022/08/17 13:07:41;;;;;;;8.77;7.45;;;23.80;90.30;;;;;;10320900;28;20037;-64
2022/08/17 13:12:42;;;;;;;9.18;7.68;;;23.80;90.40;;;;;;10316776;28;20060;-65
2022/08/17 13:17:43;;;;;;;9.77;7.32;;;23.70;90.40;;;;;;10356968;22;20396;-66
2022/08/17 13:22:52;;;;;;;10.70;7.95;;;23.70;90.50;;;;;;10318364;28;20437;-64
2022/08/17 13:27:54;;;;;;;8.48;7.13;;;23.70;90.60;;;;;;10319109;28;20489;-65
2022/08/17 13:32:56;;;;;;;6.75;6.05;;;23.60;90.70;;;;;;10296002;28;20886;-64
2022/08/17 13:38:20;;;;;;;9.02;7.18;;;23.60;90.60;;;;;;10300909;28;20083;-65
2022/08/17 13:43:43;;;;;;;8.80;7.47;;;23.60;90.70;;;;;;10315920;28;20135;-64
2022/08/17 13:48:45;;;;;;;8.25;6.93;;;23.60;90.80;;;;;;10316418;28;20303;-64
2022/08/17 13:53:51;;;;;;;7.53;6.65;;;23.60;90.90;;;;;;10326378;28;20147;-63
2022/08/17 13:59:00;;;;;;;8.05;6.53;;;23.50;90.90;;;;;;10318731;28;20770;-64
2022/08/17 14:04:08;;;;;;;8.85;6.95;;;23.50;90.90;;;;;;10324843;28;20049;-64
2022/08/17 14:09:09;;;;;;;8.23;6.60;;;23.50;91.00;;;;;;10328421;28;20115;-64
2022/08/17 14:14:12;;;;;;;9.13;7.07;;;23.50;91.00;;;;;;10323623;28;20087;-62
2022/08/17 14:19:14;;;;;;;7.53;6.18;;;23.50;91.00;;;;;;10318472;28;20049;-64
2022/08/17 14:24:23;;;;;;;8.13;6.40;;;23.50;91.00;;;;;;10320586;28;20580;-63
2022/08/17 14:29:26;;;;;;;8.70;7.00;;;23.60;91.00;;;;;;10333429;28;20038;-64
2022/08/17 14:34:27;;;;;;;8.90;7.80;;;23.60;91.10;;;;;;10316408;28;20516;-64
2022/08/17 14:39:28;;;;;;;11.00;7.13;;;23.60;91.20;;;;;;10317530;28;20124;-65
2022/08/17 14:44:29;;;;;;;8.00;7.10;;;23.60;91.20;;;;;;10333696;28;20033;-66
2022/08/17 14:49:30;;;;;;;9.18;7.88;;;23.60;91.30;;;;;;10326574;28;20636;-65
2022/08/17 14:54:33;;;;;;;13.07;7.43;;;23.60;91.40;;;;;;10342823;28;20099;-66
2022/08/17 14:59:34;;;;;;;9.65;8.00;;;23.60;91.40;;;;;;10338873;28;20061;-65
2022/08/17 15:04:36;;;;;;;10.25;7.97;;;23.50;91.50;;;;;;10328612;28;20496;-66
2022/08/17 15:09:36;;;;;;;9.02;7.07;;;23.50;91.60;;;;;;10329054;28;20627;-65
2022/08/17 15:14:37;;;;;;;7.93;6.75;;;23.50;91.70;;;;;;10327821;28;20216;-65
2022/08/17 15:19:39;;;;;;;7.28;6.45;;;23.50;91.60;;;;;;10322396;28;20050;-65
2022/08/17 15:24:40;;;;;;;9.02;6.88;;;23.40;91.70;;;;;;10317287;28;20395;-64
2022/08/17 15:29:40;;;;;;;9.77;7.53;;;23.40;91.70;;;;;;10333341;28;20405;-65
2022/08/17 15:34:41;;;;;;;12.20;9.38;;;23.40;91.70;;;;;;10327982;28;20572;-64
2022/08/17 15:39:42;;;;;;;15.48;10.40;;;23.20;92.10;;;;;;10322173;28;20033;-64
2022/08/17 15:44:43;;;;;;;12.88;9.43;;;23.30;92.80;;;;;;10332800;28;20296;-64
2022/08/17 15:49:44;;;;;;;13.63;10.40;;;23.20;93.30;;;;;;10330987;28;20513;-64
2022/08/17 15:54:58;;;;;;;16.90;11.20;;;23.20;93.80;;;;;;10331732;28;20143;-64
2022/08/17 15:59:58;;;;;;;14.90;10.73;;;23.20;94.20;;;;;;10330205;28;20037;-64
2022/08/17 16:05:09;;;;;;;19.20;11.57;;;23.10;94.40;;;;;;10324731;28;20182;-64
2022/08/17 16:10:10;;;;;;;20.52;11.32;;;23.00;95.10;;;;;;10334309;28;20056;-65
2022/08/17 16:15:12;;;;;;;13.57;10.70;;;23.00;94.90;;;;;;10339794;28;20017;-64
2022/08/17 16:20:14;;;;;;;13.10;10.30;;;23.00;95.20;;;;;;10331940;28;20041;-65
2022/08/17 16:25:26;;;;;;;15.10;10.63;;;22.90;95.40;;;;;;10328235;28;20030;-65
2022/08/17 16:30:28;;;;;;;16.15;10.40;;;22.90;95.70;;;;;;10333045;28;20524;-64
2022/08/17 16:35:29;;;;;;;15.23;10.35;;;22.90;95.60;;;;;;10331861;28;20584;-64
2022/08/17 16:40:30;;;;;;;15.95;10.23;;;22.90;95.70;;;;;;10311286;28;20077;-64
2022/08/17 16:45:38;;;;;;;13.05;10.18;;;22.80;95.80;;;;;;10327027;28;20022;-65
2022/08/17 16:50:39;;;;;;;15.23;9.65;;;22.80;96.00;;;;;;10315456;28;20392;-64
2022/08/17 16:55:41;;;;;;;14.27;10.23;;;22.80;96.00;;;;;;10341994;28;20662;-64
2022/08/17 17:00:43;;;;;;;13.65;9.73;;;22.90;96.00;;;;;;10336506;28;20827;-64
2022/08/17 17:06:15;;;;;;;14.13;9.52;;;22.90;96.10;;;;;;10323182;28;20307;-64
2022/08/17 17:11:43;;;;;;;12.25;9.30;;;22.90;96.20;;;;;;10338231;28;20076;-64
2022/08/17 17:17:00;;;;;;;14.82;9.65;;;22.90;96.40;;;;;;10328935;28;20044;-64
2022/08/17 17:22:12;;;;;;;15.68;9.98;;;22.90;96.20;;;;;;10334353;28;20064;-64
2022/08/17 17:27:16;;;;;;;14.45;9.80;;;22.80;96.10;;;;;;10328611;28;20099;-64
2022/08/17 17:32:27;;;;;;;16.23;10.55;;;22.80;96.20;;;;;;10328241;28;20124;-66
2022/08/17 17:37:32;;;;;;;13.88;10.05;;;22.80;96.30;;;;;;10316040;28;20568;-65
2022/08/17 17:42:34;;;;;;;15.27;10.60;;;22.80;96.60;;;;;;10329367;28;20045;-64
2022/08/17 17:47:39;;;;;;;15.60;10.55;;;22.70;96.40;;;;;;10315701;28;20353;-68
2022/08/17 17:52:47;;;;;;;12.40;9.88;;;22.80;96.40;;;;;;10278985;28;20456;-65
2022/08/17 17:58:06;;;;;;;15.00;10.60;;;22.80;96.30;;;;;;10305034;28;20132;-64
2022/08/17 18:03:44;;;;;;;11.10;8.68;;;22.80;96.50;;;;;;10323703;28;20053;-64
2022/08/17 18:08:51;;;;;;;11.20;8.52;;;22.80;96.40;;;;;;10328274;28;20033;-64
2022/08/17 18:14:13;;;;;;;12.73;8.75;;;22.80;96.20;;;;;;10310549;28;20044;-64
2022/08/17 18:19:19;;;;;;;10.88;8.63;;;22.80;96.10;;;;;;10309285;28;20053;-64
2022/08/17 18:24:36;;;;;;;11.85;8.75;;;22.80;96.10;;;;;;10316937;28;20445;-65
2022/08/17 18:29:42;;;;;;;13.27;8.70;;;22.70;96.00;;;;;;10334689;28;20287;-63
2022/08/17 18:34:46;;;;;;;12.27;8.15;;;22.80;96.00;;;;;;10339900;28;20030;-66
2022/08/17 18:39:49;;;;;;;10.45;7.85;;;22.80;95.90;;;;;;10345046;28;20904;-65
2022/08/17 18:44:51;;;;;;;11.23;8.02;;;22.80;95.90;;;;;;10332799;28;20048;-64
2022/08/17 18:49:56;;;;;;;9.75;7.90;;;22.70;95.80;;;;;;10321408;28;20025;-65
2022/08/17 18:55:20;;;;;;;9.32;7.53;;;22.70;95.80;;;;;;10348073;28;20382;-64
2022/08/17 19:00:54;;;;;;;10.38;7.03;;;22.70;95.90;;;;;;10332789;28;20036;-65
2022/08/17 19:06:15;;;;;;;9.93;7.40;;;22.70;95.80;;;;;;10317919;28;20502;-63
2022/08/17 19:11:24;;;;;;;11.00;7.70;;;22.70;95.80;;;;;;10331222;28;20556;-63
2022/08/17 19:16:52;;;;;;;9.43;6.72;;;22.60;95.70;;;;;;10343208;28;20021;-64
2022/08/17 19:22:05;;;;;;;12.15;7.18;;;22.60;95.80;;;;;;10324631;28;20476;-63
2022/08/17 19:27:40;;;;;;;10.32;7.22;;;22.60;95.70;;;;;;10372508;28;20032;-63
2022/08/17 19:32:42;;;;;;;9.38;7.20;;;22.60;95.80;;;;;;10409550;28;20584;-63
2022/08/17 19:37:58;;;;;;;7.95;6.13;;;22.50;95.70;;;;;;10396397;28;20311;-63
2022/08/17 19:43:22;;;;;;;7.80;6.97;;;22.50;95.70;;;;;;10403453;28;20045;-63
2022/08/17 19:48:25;;;;;;;10.18;7.70;;;22.50;95.70;;;;;;10409355;28;20041;-63
2022/08/17 19:53:33;;;;;;;8.80;6.97;;;22.50;95.70;;;;;;10396425;28;20025;-63
2022/08/17 19:58:49;;;;;;;9.05;6.55;;;22.50;95.80;;;;;;10413555;28;20026;-62
2022/08/17 20:04:19;;;;;;;8.93;6.88;;;22.40;95.70;;;;;;10395536;28;20037;-63
2022/08/17 20:09:38;;;;;;;7.68;6.32;;;22.40;95.70;;;;;;10382771;28;20037;-64
2022/08/17 20:14:48;;;;;;;6.82;5.90;;;22.40;95.70;;;;;;10397663;28;20092;-64
2022/08/17 20:19:54;;;;;;;7.32;5.97;;;22.40;95.60;;;;;;10392333;28;20838;-63
2022/08/17 20:25:14;;;;;;;8.52;6.45;;;22.40;95.70;;;;;;10394661;28;20104;-64
2022/08/17 20:30:32;;;;;;;7.70;6.07;;;22.40;95.70;;;;;;10407556;28;20219;-63
2022/08/17 20:35:37;;;;;;;7.45;6.10;;;22.40;95.60;;;;;;10400263;28;20493;-63
2022/08/17 20:41:03;;;;;;;7.43;6.13;;;22.30;95.60;;;;;;10420286;28;20753;-63
2022/08/17 20:46:31;;;;;;;6.80;5.93;;;22.30;95.50;;;;;;10409769;28;20123;-65
2022/08/17 20:51:38;;;;;;;8.25;6.03;;;22.30;95.60;;;;;;10396515;28;20092;-63
2022/08/17 20:56:42;;;;;;;7.82;5.68;;;22.30;95.50;;;;;;10403293;28;20100;-63
2022/08/17 21:02:08;;;;;;;9.65;6.72;;;22.30;95.50;;;;;;10388588;28;20083;-66
2022/08/17 21:07:29;;;;;;;7.30;6.55;;;22.30;95.80;;;;;;10397461;28;20036;-65
2022/08/17 21:12:42;;;;;;;10.23;6.35;;;22.30;95.80;;;;;;10398539;28;20648;-66
2022/08/17 21:17:55;;;;;;;7.85;5.72;;;22.30;95.70;;;;;;10387644;28;20048;-65
2022/08/17 21:23:10;;;;;;;6.53;5.82;;;22.30;95.70;;;;;;10387826;28;20391;-63
2022/08/17 21:28:17;;;;;;;11.45;6.68;;;22.20;95.60;;;;;;10396111;28;20108;-63
2022/08/17 21:33:30;;;;;;;6.97;5.80;;;22.20;95.70;;;;;;10387981;28;20034;-63
2022/08/17 21:38:40;;;;;;;6.97;5.90;;;22.20;95.70;;;;;;10392364;28;20033;-64
2022/08/17 21:43:47;;;;;;;5.90;5.30;;;22.20;95.70;;;;;;10396127;28;20049;-63
2022/08/17 21:48:49;;;;;;;7.60;5.82;;;22.20;95.70;;;;;;10391095;28;20408;-63
2022/08/17 21:54:12;;;;;;;8.98;5.95;;;22.20;95.70;;;;;;10387254;28;20037;-64
2022/08/17 21:59:26;;;;;;;8.75;5.68;;;22.20;95.70;;;;;;10397489;28;20046;-63
2022/08/17 22:04:28;;;;;;;8.57;6.20;;;22.20;95.70;;;;;;10388133;28;20498;-63
2022/08/17 22:09:49;;;;;;;8.05;5.97;;;22.10;95.60;;;;;;10392580;28;20040;-63
2022/08/17 22:15:03;;;;;;;7.78;5.80;;;22.20;95.70;;;;;;10392692;28;20918;-64
2022/08/17 22:20:11;;;;;;;8.18;5.53;;;22.10;95.70;;;;;;10399455;28;21424;-64
2022/08/17 22:25:20;;;;;;;10.25;5.65;;;22.10;95.70;;;;;;10398353;28;20037;-64
2022/08/17 22:30:35;;;;;;;8.13;5.60;;;22.10;95.70;;;;;;10402168;28;20037;-64
2022/08/17 22:35:40;;;;;;;7.30;5.30;;;22.10;95.70;;;;;;10387893;28;20017;-64
2022/08/17 22:40:42;;;;;;;7.43;5.03;;;22.10;95.70;;;;;;10390517;28;20458;-64
2022/08/17 22:45:52;;;;;;;9.55;5.53;;;22.10;95.70;;;;;;10393681;28;20596;-64
2022/08/17 22:51:07;;;;;;;8.70;5.35;;;22.10;95.70;;;;;;10392036;28;20044;-64
2022/08/17 23:01:37;;;;;;;7.50;5.15;;;22.10;95.70;;;;;;10397009;28;20488;-64
2022/08/17 23:06:41;;;;;;;10.68;5.57;;;22.10;95.70;;;;;;10392750;28;20049;-63
2022/08/17 23:11:44;;;;;;;10.63;5.40;;;22.10;95.70;;;;;;10395333;28;20042;-64
2022/08/17 23:16:45;;;;;;;8.75;5.45;;;22.10;95.70;;;;;;10402781;28;20079;-63
2022/08/17 23:21:47;;;;;;;6.68;5.13;;;22.20;95.80;;;;;;10400745;28;20246;-64
2022/08/17 23:26:49;;;;;;;8.38;5.97;;;22.10;95.80;;;;;;10406855;28;20026;-64
2022/08/17 23:31:51;;;;;;;8.48;5.07;;;22.00;95.80;;;;;;10403087;28;20057;-64
2022/08/17 23:36:51;;;;;;;8.90;5.20;;;22.00;95.80;;;;;;10395637;28;20033;-64
2022/08/17 23:41:52;;;;;;;6.88;5.35;;;22.00;95.80;;;;;;10395799;28;20049;-64
2022/08/17 23:46:53;;;;;;;9.27;5.38;;;22.00;95.80;;;;;;10404522;28;20457;-64
2022/08/17 23:51:54;;;;;;;7.38;4.68;;;22.00;95.80;;;;;;10408389;28;20099;-64
2022/08/17 23:56:55;;;;;;;11.05;6.28;;;22.00;95.80;;;;;;10391707;28;20025;-64
